Time;durP1;ratioP1;P1;durP2;ratioP2;P2;SDS_P1;SDS_P2;PMS_P1;PMS_P2;Temp;Humidity;BMP_temperature;BMP_pressure;BME280_temperature;BME280_humidity;BME280_pressure;Samples;Min_cycle;Max_cycle;Signal;HPM_P1;HPM_P2
2021/05/05 00:01:59;;;;;;;2.83;0.73;;;;;;;7.48;51.69;99266.19;1737263;79;21143;-54
2021/05/05 00:04:26;;;;;;;1.43;0.70;;;;;;;7.49;51.64;99265.69;1739091;80;21149;-54
2021/05/05 00:06:56;;;;;;;1.23;0.63;;;;;;;7.49;51.58;99265.22;1738635;79;21567;-55
2021/05/05 00:09:24;;;;;;;1.00;0.70;;;;;;;7.51;51.65;99263.35;1791160;77;21494;-54
2021/05/05 00:11:51;;;;;;;2.03;0.70;;;;;;;7.51;51.51;99266.03;1755893;79;22265;-54
2021/05/05 00:14:19;;;;;;;3.83;0.67;;;;;;;7.53;51.53;99264.63;1737581;79;22160;-54
2021/05/05 00:16:47;;;;;;;3.13;0.70;;;;;;;7.54;51.43;99265.03;1740143;79;21190;-54
2021/05/05 00:19:15;;;;;;;0.87;0.60;;;;;;;7.56;51.39;99263.17;1738108;79;21139;-55
2021/05/05 00:21:42;;;;;;;0.93;0.67;;;;;;;7.56;51.40;99254.67;1739070;80;22063;-54
2021/05/05 00:24:10;;;;;;;1.77;0.60;;;;;;;7.58;51.41;99262.61;1758069;79;22227;-54
2021/05/05 00:26:38;;;;;;;3.20;0.60;;;;;;;7.57;51.35;99259.06;1741846;79;21850;-54
2021/05/05 00:29:06;;;;;;;1.93;0.60;;;;;;;7.58;51.30;99262.14;1739379;79;21523;-54
2021/05/05 00:31:33;;;;;;;1.60;0.70;;;;;;;7.59;51.25;99259.00;1790403;77;21552;-55
2021/05/05 00:34:01;;;;;;;1.43;0.60;;;;;;;7.59;51.26;99254.98;1788704;77;21162;-54
2021/05/05 00:36:28;;;;;;;2.57;0.70;;;;;;;7.59;51.28;99256.31;1787159;77;21621;-54
2021/05/05 00:38:56;;;;;;;0.90;0.60;;;;;;;7.59;51.37;99245.14;1792687;77;21234;-54
2021/05/05 00:41:23;;;;;;;1.00;0.50;;;;;;;7.58;51.29;99252.77;1795851;77;21304;-54
2021/05/05 00:43:51;;;;;;;2.67;0.60;;;;;;;7.58;51.34;99247.41;1791412;77;21182;-53
2021/05/05 00:46:19;;;;;;;0.60;0.50;;;;;;;7.57;51.29;99247.50;1789044;77;21163;-53
2021/05/05 00:48:46;;;;;;;0.90;0.70;;;;;;;7.57;51.26;99242.15;1788664;77;21962;-53
2021/05/05 00:51:14;;;;;;;1.20;0.50;;;;;;;7.56;51.32;99241.74;1737029;80;21621;-54
2021/05/05 00:53:41;;;;;;;1.37;0.57;;;;;;;7.57;51.37;99243.48;1737314;79;21193;-53
2021/05/05 00:56:09;;;;;;;1.30;0.60;;;;;;;7.55;51.39;99244.89;1738814;79;21722;-53
2021/05/05 00:58:36;;;;;;;1.20;0.60;;;;;;;7.55;51.40;99242.67;1740238;79;21186;-53
2021/05/05 01:01:04;;;;;;;1.37;0.70;;;;;;;7.54;51.41;99244.48;1790903;77;22319;-53
2021/05/05 01:03:32;;;;;;;1.57;0.70;;;;;;;7.53;51.47;99242.73;1791963;77;21656;-55
2021/05/05 01:06:02;;;;;;;2.87;0.73;;;;;;;7.53;51.50;99238.72;1790469;77;21537;-53
2021/05/05 01:08:30;;;;;;;2.23;0.70;;;;;;;7.53;51.45;99240.52;1786992;77;21170;-54
2021/05/05 01:10:59;;;;;;;2.10;0.50;;;;;;;7.52;51.49;99229.41;1792250;77;21585;-52
2021/05/05 01:13:26;;;;;;;3.10;0.70;;;;;;;7.51;51.56;99233.02;1796637;77;21171;-54
2021/05/05 01:15:54;;;;;;;0.80;0.60;;;;;;;7.49;51.55;99233.08;1787870;77;21267;-53
2021/05/05 01:18:21;;;;;;;1.17;0.60;;;;;;;7.48;51.61;99226.02;1786262;78;21166;-53
2021/05/05 01:20:49;;;;;;;1.57;0.50;;;;;;;7.47;51.64;99228.29;1762263;79;21724;-54
2021/05/05 01:23:16;;;;;;;0.87;0.60;;;;;;;7.47;51.68;99230.97;1795036;78;21162;-53
2021/05/05 01:25:45;;;;;;;1.83;0.70;;;;;;;7.47;51.69;99225.61;1746446;80;21351;-54
2021/05/05 01:28:12;;;;;;;1.27;0.90;;;;;;;7.48;51.68;99222.47;1766141;78;21186;-53
2021/05/05 01:30:40;;;;;;;2.43;0.70;;;;;;;7.48;51.69;99223.34;1804862;78;21466;-53
2021/05/05 01:33:07;;;;;;;5.13;0.77;;;;;;;7.48;51.72;99219.32;1784173;77;21199;-53
2021/05/05 01:35:34;;;;;;;2.30;0.60;;;;;;;7.48;51.75;99216.64;1785007;78;21170;-53
2021/05/05 01:38:02;;;;;;;2.40;0.70;;;;;;;7.49;51.83;99213.47;1784754;78;21374;-53
2021/05/05 01:40:32;;;;;;;1.53;0.83;;;;;;;7.48;51.92;99217.11;1785469;78;21194;-53
2021/05/05 01:43:03;;;;;;;1.20;0.67;;;;;;;7.48;51.98;99209.95;1787179;78;21176;-53
2021/05/05 01:45:31;;;;;;;2.63;0.70;;;;;;;7.47;52.04;99208.20;1782496;78;21187;-53
2021/05/05 01:48:03;;;;;;;1.77;0.60;;;;;;;7.48;52.10;99218.45;1785284;78;21147;-54
2021/05/05 01:50:32;;;;;;;0.77;0.57;;;;;;;7.46;52.10;99211.81;1788831;78;21331;-54
2021/05/05 01:53:00;;;;;;;1.20;0.60;;;;;;;7.46;52.15;99210.48;1784867;78;21111;-54
2021/05/05 01:55:28;;;;;;;1.03;0.60;;;;;;;7.46;52.15;99210.48;1786699;77;21589;-54
2021/05/05 01:57:55;;;;;;;1.80;0.70;;;;;;;7.46;52.19;99209.14;1789203;78;21907;-54
2021/05/05 02:00:27;;;;;;;1.20;0.60;;;;;;;7.47;52.21;99209.55;1785027;77;21186;-52
2021/05/05 02:03:05;;;;;;;2.00;0.70;;;;;;;7.47;52.21;99210.88;1787329;78;22053;-53
2021/05/05 02:05:48;;;;;;;3.00;0.73;;;;;;;7.51;52.23;99208.45;1870676;75;26610;-52
2021/05/05 02:08:26;;;;;;;2.07;1.10;;;;;;;7.47;52.25;99215.36;1755725;80;21283;-53
2021/05/05 02:10:54;;;;;;;1.23;0.60;;;;;;;7.47;52.28;99212.69;1835860;76;21379;-51
2021/05/05 02:13:21;;;;;;;4.63;0.80;;;;;;;7.47;52.31;99204.66;1801030;78;21578;-53
2021/05/05 02:15:50;;;;;;;2.23;0.70;;;;;;;7.47;52.36;99209.55;1780299;78;21511;-52
2021/05/05 02:18:19;;;;;;;2.20;0.70;;;;;;;7.47;52.39;99201.51;1803360;78;20956;-52
2021/05/05 02:20:47;;;;;;;4.00;0.80;;;;;;;7.47;52.50;99201.51;1801361;78;21058;-53
2021/05/05 02:23:15;;;;;;;2.27;0.70;;;;;;;7.46;52.50;99205.59;1803666;78;21385;-54
2021/05/05 02:25:42;;;;;;;2.00;0.70;;;;;;;7.45;52.60;99194.00;1775893;78;21143;-51
2021/05/05 02:28:10;;;;;;;2.40;0.70;;;;;;;7.44;52.59;99197.62;1799701;78;20980;-52
2021/05/05 02:30:48;;;;;;;1.13;0.70;;;;;;;7.48;52.70;99191.20;1867095;75;27138;-53
2021/05/05 02:33:17;;;;;;;1.10;0.90;;;;;;;7.44;52.83;99192.26;1778583;78;21083;-53
2021/05/05 02:35:46;;;;;;;1.63;0.70;;;;;;;7.44;52.92;99177.53;1807260;77;20999;-53
2021/05/05 02:38:15;;;;;;;0.90;0.70;;;;;;;7.46;52.98;99182.83;1804724;77;21007;-53
2021/05/05 02:40:43;;;;;;;0.90;0.70;;;;;;;7.46;53.04;99178.81;1804077;78;20973;-54
2021/05/05 02:43:10;;;;;;;2.23;0.70;;;;;;;7.47;53.18;99177.87;1747729;78;21127;-54
2021/05/05 02:45:39;;;;;;;2.13;0.80;;;;;;;7.47;53.29;99177.41;1766127;78;20949;-54
2021/05/05 02:48:07;;;;;;;3.03;0.80;;;;;;;7.48;53.43;99172.92;1717278;80;21491;-54
2021/05/05 02:50:37;;;;;;;0.80;0.60;;;;;;;7.50;53.53;99179.92;1754808;79;21530;-54
2021/05/05 02:53:06;;;;;;;3.70;0.80;;;;;;;7.52;53.67;99182.55;1752822;79;21076;-53
2021/05/05 02:55:33;;;;;;;2.07;0.80;;;;;;;7.52;53.75;99174.04;1756451;79;21546;-53
2021/05/05 02:58:01;;;;;;;4.63;1.00;;;;;;;7.53;53.84;99165.07;1723576;79;21125;-52
2021/05/05 03:00:28;;;;;;;1.10;0.90;;;;;;;7.55;53.93;99173.91;1755582;79;21645;-52
2021/05/05 03:05:33;;;;;;;2.07;1.00;;;;;;;7.64;54.21;99162.37;1827524;76;27791;-54
2021/05/05 03:08:01;;;;;;;2.37;0.80;;;;;;;7.59;54.28;99163.45;1791513;77;21927;-52
2021/05/05 03:10:28;;;;;;;3.17;0.90;;;;;;;7.61;54.35;99156.69;1794709;77;21732;-54
2021/05/05 03:13:02;;;;;;;1.20;0.80;;;;;;;7.64;54.54;99161.91;1693524;81;20985;-96
2021/05/05 03:15:30;;;;;;;0.93;0.63;;;;;;;7.65;54.61;99162.78;1712482;81;20980;-53
2021/05/05 03:17:57;;;;;;;2.03;0.70;;;;;;;7.68;54.70;99164.84;1710319;81;22260;-52
2021/05/05 03:20:24;;;;;;;0.80;0.70;;;;;;;7.72;54.75;99161.56;1709013;81;21986;-53
2021/05/05 03:22:52;;;;;;;0.90;0.70;;;;;;;7.75;54.88;99157.38;1710799;81;21741;-53
2021/05/05 03:25:19;;;;;;;3.80;0.77;;;;;;;7.78;54.96;99160.80;1708609;81;21480;-53
2021/05/05 03:27:46;;;;;;;0.90;0.70;;;;;;;7.83;54.99;99159.23;1709179;81;21251;-53
2021/05/05 03:30:15;;;;;;;2.20;0.60;;;;;;;7.88;55.01;99155.42;1711228;81;21241;-53
2021/05/05 03:32:43;;;;;;;2.80;0.70;;;;;;;7.93;55.05;99160.08;1710343;81;21767;-54
2021/05/05 03:35:13;;;;;;;6.30;0.93;;;;;;;7.98;55.07;99160.75;1711836;81;22435;-52
2021/05/05 03:37:40;;;;;;;3.07;0.70;;;;;;;8.04;55.09;99158.24;1751809;77;21198;-53
2021/05/05 03:40:09;;;;;;;0.90;0.60;;;;;;;8.09;55.08;99160.69;1799784;77;21119;-52
2021/05/05 03:42:36;;;;;;;0.80;0.60;;;;;;;8.15;55.07;99160.42;1784339;77;21083;-51
2021/05/05 03:45:05;;;;;;;1.57;0.70;;;;;;;8.20;54.99;99157.91;1776713;78;21167;-54
2021/05/05 03:47:33;;;;;;;2.30;1.00;;;;;;;8.27;55.01;99153.98;1773905;78;21393;-53
2021/05/05 03:50:02;;;;;;;3.10;0.77;;;;;;;8.37;55.04;99154.91;1778604;78;21650;-52
2021/05/05 03:52:29;;;;;;;1.10;0.70;;;;;;;8.47;54.97;99150.84;1782636;78;21167;-53
2021/05/05 03:54:56;;;;;;;1.50;0.90;;;;;;;8.59;54.77;99152.94;1774031;78;21222;-53
2021/05/05 03:57:23;;;;;;;0.97;0.80;;;;;;;8.72;54.68;99153.58;1774327;78;21150;-53
2021/05/05 03:59:50;;;;;;;1.00;0.87;;;;;;;8.86;54.42;99147.50;1774877;78;21457;-54
2021/05/05 04:02:19;;;;;;;0.93;0.80;;;;;;;9.03;54.13;99148.84;1779072;78;21665;-54
2021/05/05 04:04:47;;;;;;;2.40;0.63;;;;;;;9.26;53.87;99142.30;1780790;78;21225;-51
2021/05/05 04:07:14;;;;;;;0.90;0.70;;;;;;;9.59;53.63;99144.14;1790026;78;21409;-53
2021/05/05 04:09:43;;;;;;;2.13;0.70;;;;;;;10.00;53.12;99139.19;1753231;80;21105;-55
2021/05/05 04:12:11;;;;;;;0.87;0.60;;;;;;;10.49;52.09;99126.06;1770770;79;21812;-53
2021/05/05 04:14:39;;;;;;;0.80;0.50;;;;;;;11.04;51.19;99128.22;1758808;80;21269;-52
2021/05/05 04:17:24;;;;;;;2.37;0.97;;;;;;;11.65;49.93;99127.17;1770833;79;21107;-53
2021/05/05 04:20:11;;;;;;;7.80;0.70;;;;;;;12.23;48.41;99116.27;1754535;80;21541;-52
2021/05/05 04:22:56;;;;;;;0.67;0.50;;;;;;;12.76;46.83;99115.39;1720541;81;21245;-53
2021/05/05 04:25:42;;;;;;;1.20;0.60;;;;;;;13.19;45.83;99110.67;1718725;81;21529;-53
2021/05/05 04:28:09;;;;;;;1.20;0.70;;;;;;;13.30;45.29;99105.88;1723180;81;21762;-53
2021/05/05 04:30:36;;;;;;;1.12;0.57;;;;;;;13.35;44.77;99105.09;1747945;80;21236;-53
2021/05/05 04:33:04;;;;;;;0.68;0.60;;;;;;;13.43;44.51;99105.91;1753408;80;21689;-53
2021/05/05 04:35:31;;;;;;;1.25;0.50;;;;;;;13.34;44.57;99099.79;1752111;80;21263;-53
2021/05/05 04:37:59;;;;;;;1.00;0.50;;;;;;;13.25;44.45;99102.64;1751342;80;21710;-54
2021/05/05 04:40:26;;;;;;;0.60;0.50;;;;;;;13.14;44.66;99100.67;1753396;80;21648;-55
2021/05/05 04:42:53;;;;;;;1.80;0.60;;;;;;;13.00;44.92;99100.73;1753105;80;21172;-54
2021/05/05 04:45:20;;;;;;;5.40;0.60;;;;;;;12.87;45.21;99106.09;1751283;80;21227;-55
2021/05/05 04:47:48;;;;;;;1.17;0.50;;;;;;;12.77;45.51;99101.41;1752694;80;21200;-54
2021/05/05 04:50:15;;;;;;;1.07;0.68;;;;;;;12.68;45.83;99092.57;1754630;80;21388;-55
2021/05/05 04:52:43;;;;;;;0.90;0.50;;;;;;;12.63;46.06;99091.55;1727325;80;21636;-55
2021/05/05 04:55:11;;;;;;;2.35;0.50;;;;;;;12.61;46.31;99099.36;1753591;80;21151;-55
2021/05/05 04:57:38;;;;;;;0.93;0.50;;;;;;;12.59;46.48;99094.05;1771209;79;21091;-56
2021/05/05 05:00:08;;;;;;;1.50;0.45;;;;;;;12.60;46.78;99093.09;1754471;80;21229;-56
2021/05/05 05:02:35;;;;;;;1.37;0.65;;;;;;;12.61;47.05;99090.78;1772740;79;22075;-56
2021/05/05 05:05:04;;;;;;;1.82;0.50;;;;;;;12.67;47.17;99086.82;1751497;80;21189;-55
2021/05/05 05:07:35;;;;;;;2.42;0.50;;;;;;;12.72;47.48;99085.53;1714784;82;21616;-55
2021/05/05 05:10:04;;;;;;;0.70;0.40;;;;;;;12.80;47.72;99079.13;1728148;81;21636;-55
2021/05/05 05:12:32;;;;;;;2.52;0.50;;;;;;;12.91;47.53;99079.75;1729824;81;21118;-55
2021/05/05 05:14:59;;;;;;;1.35;0.50;;;;;;;13.02;47.42;99076.29;1749212;80;21209;-55
2021/05/05 05:17:26;;;;;;;0.95;0.50;;;;;;;13.13;47.56;99081.83;1724338;81;21225;-56
2021/05/05 05:19:54;;;;;;;0.50;0.40;;;;;;;13.24;47.25;99081.99;1771633;79;21680;-55
2021/05/05 05:22:21;;;;;;;0.70;0.40;;;;;;;13.35;47.03;99074.49;1773741;79;21178;-54
2021/05/05 05:24:49;;;;;;;0.70;0.40;;;;;;;13.44;46.56;99076.55;1777870;79;21637;-54
2021/05/05 05:27:17;;;;;;;0.80;0.37;;;;;;;13.55;46.31;99072.58;1774664;79;21333;-54
2021/05/05 05:29:44;;;;;;;1.95;0.40;;;;;;;13.65;45.97;99075.02;1773583;79;21206;-54
2021/05/05 05:32:11;;;;;;;0.37;0.33;;;;;;;13.75;45.39;99070.68;1773366;79;21174;-54
2021/05/05 05:34:40;;;;;;;0.60;0.40;;;;;;;13.84;45.00;99063.26;1774530;79;21162;-55
2021/05/05 05:37:07;;;;;;;2.17;0.50;;;;;;;13.90;44.63;99058.75;1776008;79;21000;-54
2021/05/05 05:39:35;;;;;;;1.47;0.40;;;;;;;13.94;45.20;99052.15;1776114;79;21350;-54
2021/05/05 05:42:02;;;;;;;1.22;0.40;;;;;;;14.03;45.08;99049.26;1777565;79;21553;-54
2021/05/05 05:44:31;;;;;;;3.45;0.40;;;;;;;14.11;45.46;99046.85;1775752;79;21166;-55
2021/05/05 05:46:58;;;;;;;0.78;0.30;;;;;;;14.17;45.53;99038.27;1777134;79;21463;-55
2021/05/05 05:49:26;;;;;;;2.55;0.40;;;;;;;14.24;45.90;99028.71;1779236;79;20955;-55
2021/05/05 05:51:54;;;;;;;0.95;0.30;;;;;;;14.33;46.37;99029.87;1774456;79;21550;-55
2021/05/05 05:54:21;;;;;;;0.60;0.30;;;;;;;14.41;46.48;99026.61;1776106;79;20950;-55
2021/05/05 05:56:48;;;;;;;2.30;0.40;;;;;;;14.49;46.66;99014.71;1776881;79;21447;-54
2021/05/05 05:59:15;;;;;;;3.75;0.40;;;;;;;14.57;46.75;99020.41;1775744;79;21792;-54
2021/05/05 06:01:44;;;;;;;0.50;0.35;;;;;;;14.62;47.13;99017.74;1779668;79;21404;-54
2021/05/05 06:04:11;;;;;;;0.70;0.37;;;;;;;14.68;47.43;99009.14;1773223;79;21193;-54
2021/05/05 06:06:39;;;;;;;0.75;0.40;;;;;;;14.76;47.53;99015.32;1749148;79;21159;-54
2021/05/05 06:09:07;;;;;;;1.75;0.42;;;;;;;14.81;47.65;99019.88;1777615;79;21143;-55
2021/05/05 06:11:34;;;;;;;0.50;0.37;;;;;;;14.84;48.08;99014.23;1774568;79;21087;-55
2021/05/05 06:14:04;;;;;;;2.52;0.37;;;;;;;14.89;48.16;99017.93;1775541;79;21102;-55
2021/05/05 06:17:53;;;;;;;0.50;0.30;;;;;;;15.02;48.80;99020.95;1796898;78;22656;-55
2021/05/05 06:20:20;;;;;;;2.40;0.40;;;;;;;15.05;48.58;99027.98;1716976;81;21246;-54
2021/05/05 06:22:47;;;;;;;2.58;0.50;;;;;;;15.09;48.75;99030.31;1734429;81;21408;-53
2021/05/05 06:25:14;;;;;;;0.45;0.35;;;;;;;15.12;48.73;99024.67;1737281;81;21431;-54
2021/05/05 06:27:42;;;;;;;0.50;0.30;;;;;;;15.17;48.91;99024.78;1732590;81;21729;-54
2021/05/05 06:30:10;;;;;;;3.67;0.40;;;;;;;15.20;49.21;99024.55;1715707;81;21125;-55
2021/05/05 06:32:38;;;;;;;3.20;0.40;;;;;;;15.24;49.40;99021.95;1738201;81;21497;-54
2021/05/05 06:35:07;;;;;;;1.25;0.40;;;;;;;15.27;49.77;99026.66;1720111;81;21337;-55
2021/05/05 06:37:34;;;;;;;1.35;0.40;;;;;;;15.33;49.74;99028.02;1733945;81;21171;-56
2021/05/05 06:40:04;;;;;;;0.50;0.40;;;;;;;15.39;49.92;99024.34;1719313;81;20973;-55
2021/05/05 06:42:31;;;;;;;0.53;0.33;;;;;;;15.47;50.35;99024.59;1713772;82;21172;-56
2021/05/05 06:44:58;;;;;;;1.67;0.40;;;;;;;15.57;50.07;99023.38;1712937;82;21115;-54
2021/05/05 06:47:27;;;;;;;1.72;0.40;;;;;;;15.65;50.03;99018.20;1735500;81;21823;-55
2021/05/05 06:49:55;;;;;;;1.82;0.40;;;;;;;15.72;49.87;99009.95;1716013;82;21563;-54
2021/05/05 06:52:22;;;;;;;0.50;0.40;;;;;;;15.78;49.98;99019.44;1716924;81;21195;-55
2021/05/05 06:54:49;;;;;;;1.17;0.30;;;;;;;15.84;49.97;99009.44;1716568;81;21219;-55
2021/05/05 06:57:16;;;;;;;2.22;0.55;;;;;;;15.90;50.15;99006.25;1734019;81;21547;-55
2021/05/05 06:59:43;;;;;;;1.37;0.40;;;;;;;15.96;49.78;99012.52;1735238;81;21885;-55
2021/05/05 07:02:11;;;;;;;1.82;0.40;;;;;;;16.02;49.92;99003.86;1734858;81;21206;-55
2021/05/05 07:04:39;;;;;;;1.35;0.30;;;;;;;16.08;49.75;99007.42;1732190;81;21239;-56
2021/05/05 07:07:06;;;;;;;5.08;0.40;;;;;;;16.14;49.89;99011.02;1734512;81;22000;-55
2021/05/05 07:09:35;;;;;;;0.70;0.40;;;;;;;16.22;49.68;99003.09;1715476;81;21525;-55
2021/05/05 07:12:03;;;;;;;1.72;0.40;;;;;;;16.28;49.74;99008.00;1714844;81;21638;-55
2021/05/05 07:14:30;;;;;;;3.05;0.33;;;;;;;16.36;49.80;99001.92;1701719;82;21150;-54
2021/05/05 07:16:59;;;;;;;5.03;0.40;;;;;;;16.43;49.89;99001.77;1698020;82;21958;-55
2021/05/05 07:19:27;;;;;;;0.57;0.35;;;;;;;16.52;49.68;99006.92;1681981;83;21204;-54
2021/05/05 07:21:54;;;;;;;0.50;0.40;;;;;;;16.59;49.60;98999.48;1680854;83;21646;-56
2021/05/05 07:24:23;;;;;;;1.22;0.40;;;;;;;16.67;49.50;98991.23;1681994;82;21421;-55
2021/05/05 07:26:50;;;;;;;0.70;0.40;;;;;;;16.74;49.32;98991.94;1684235;83;21228;-55
2021/05/05 07:29:18;;;;;;;5.05;0.40;;;;;;;16.81;49.64;98993.14;1683248;83;21202;-55
2021/05/05 07:31:46;;;;;;;1.30;0.50;;;;;;;16.93;49.06;98998.86;1679132;83;21222;-56
2021/05/05 07:34:14;;;;;;;1.52;0.40;;;;;;;16.93;49.06;98998.86;1683440;83;21181;-55
2021/05/05 07:36:46;;;;;;;1.00;0.40;;;;;;;16.98;49.07;98995.27;1680440;83;21564;-54
2021/05/05 07:47:09;;;;;;;9.48;0.60;;;;;;;17.14;49.11;99000.23;1683058;83;21153;-56
2021/05/05 07:49:42;;;;;;;1.32;0.50;;;;;;;17.19;49.23;98995.73;1684673;83;21392;-54
2021/05/05 07:52:03;;;;;;;6.22;0.60;;;;;;;17.25;49.04;98997.94;1675928;83;21603;-55
2021/05/05 07:54:30;;;;;;;1.07;0.50;;;;;;;17.29;48.69;99000.24;1679995;83;21206;-56
2021/05/05 07:56:58;;;;;;;1.25;0.50;;;;;;;17.28;48.89;98990.36;1685861;83;21244;-55
2021/05/05 07:59:24;;;;;;;0.88;0.55;;;;;;;17.28;48.89;98990.36;1678131;83;21236;-55
2021/05/05 08:01:52;;;;;;;2.05;0.42;;;;;;;17.32;49.16;98986.88;1679158;83;21419;-56
2021/05/05 08:04:19;;;;;;;3.00;0.53;;;;;;;17.38;48.77;98996.72;1683345;82;21189;-55
2021/05/05 08:06:47;;;;;;;1.50;0.50;;;;;;;17.38;48.77;98996.72;1682769;83;21687;-55
2021/05/05 08:09:15;;;;;;;3.33;0.70;;;;;;;17.43;48.82;98990.03;1685427;83;21110;-57
2021/05/05 08:11:42;;;;;;;7.55;0.70;;;;;;;17.44;48.69;98979.52;1681437;83;21249;-55
2021/05/05 08:14:10;;;;;;;2.52;0.60;;;;;;;17.45;48.30;98982.06;1679717;83;21225;-54
2021/05/05 08:16:37;;;;;;;9.00;0.50;;;;;;;17.46;48.52;98970.69;1682011;83;21230;-56
2021/05/05 08:19:04;;;;;;;2.25;0.88;;;;;;;17.49;47.94;98972.66;1700161;83;21621;-57
2021/05/05 08:21:32;;;;;;;2.35;0.57;;;;;;;17.53;47.50;98974.58;1753960;80;21267;-56
2021/05/05 08:24:00;;;;;;;1.12;0.70;;;;;;;17.57;47.86;98982.85;1754800;80;21164;-56
2021/05/05 08:26:29;;;;;;;1.40;0.90;;;;;;;17.62;47.57;98968.36;1750846;80;22139;-55
2021/05/05 08:28:58;;;;;;;5.20;0.70;;;;;;;17.67;47.30;98966.10;1749969;80;21202;-55
2021/05/05 08:31:25;;;;;;;3.40;0.60;;;;;;;17.72;47.50;98961.95;1754380;80;21143;-55
2021/05/05 08:33:53;;;;;;;1.32;0.60;;;;;;;17.75;47.11;98970.36;1753937;80;21096;-56
2021/05/05 08:36:20;;;;;;;1.22;0.62;;;;;;;17.74;46.78;98957.25;1763526;80;21185;-55
2021/05/05 08:38:50;;;;;;;1.30;0.70;;;;;;;17.71;46.20;98952.06;1755897;80;21202;-55
2021/05/05 08:41:17;;;;;;;0.65;0.50;;;;;;;17.68;46.46;98960.53;1754507;80;21130;-56
2021/05/05 08:43:44;;;;;;;0.65;0.50;;;;;;;17.66;46.93;98960.30;1758130;80;21107;-55
2021/05/05 08:46:13;;;;;;;3.40;0.70;;;;;;;17.68;47.10;98959.66;1754946;80;21501;-56
2021/05/05 08:48:41;;;;;;;4.50;0.60;;;;;;;17.72;47.37;98961.95;1754854;80;21425;-56
2021/05/05 08:51:08;;;;;;;1.52;0.60;;;;;;;17.79;46.78;98954.09;1735798;80;22262;-56
2021/05/05 08:53:35;;;;;;;2.15;0.60;;;;;;;17.83;46.89;98952.83;1757407;80;21131;-56
2021/05/05 08:56:03;;;;;;;2.77;0.68;;;;;;;17.99;46.64;98950.94;1756568;80;21443;-56
2021/05/05 08:58:31;;;;;;;1.32;0.95;;;;;;;17.99;46.64;98950.94;1757284;80;21526;-55
2021/05/05 09:01:00;;;;;;;2.25;0.60;;;;;;;18.07;46.50;98952.45;1715177;80;21537;-56
2021/05/05 09:03:32;;;;;;;0.70;0.60;;;;;;;18.14;46.19;98949.02;1703101;82;21571;-55
2021/05/05 09:06:03;;;;;;;0.85;0.60;;;;;;;18.22;45.57;98948.81;1706559;82;21156;-56
2021/05/05 09:08:32;;;;;;;1.57;0.60;;;;;;;18.27;44.97;98946.55;1702289;82;21426;-55
2021/05/05 09:11:06;;;;;;;1.47;0.70;;;;;;;18.30;44.93;98938.93;1706847;82;21155;-55
2021/05/05 09:13:50;;;;;;;2.87;0.60;;;;;;;18.34;44.35;98947.69;1709225;82;21563;-56
2021/05/05 09:16:25;;;;;;;0.72;0.57;;;;;;;18.34;44.49;98949.05;1707103;82;21148;-57
2021/05/05 09:19:05;;;;;;;1.17;0.65;;;;;;;18.36;44.33;98945.70;1690245;83;21174;-56
2021/05/05 09:21:49;;;;;;;2.90;0.60;;;;;;;18.38;44.47;98925.95;1692312;84;21181;-56
2021/05/05 09:24:30;;;;;;;2.50;0.50;;;;;;;18.40;44.41;98932.98;1692114;84;21240;-56
2021/05/05 09:27:04;;;;;;;1.60;0.60;;;;;;;18.43;44.64;98930.49;1692276;84;21256;-57
2021/05/05 09:29:47;;;;;;;5.72;0.50;;;;;;;18.48;44.19;98920.01;1688037;84;21469;-54
2021/05/05 09:32:18;;;;;;;2.35;0.60;;;;;;;18.49;43.33;98925.82;1691943;84;21437;-56
2021/05/05 09:34:59;;;;;;;0.78;0.53;;;;;;;18.49;43.10;98923.95;1688350;84;21654;-56
2021/05/05 09:37:27;;;;;;;3.47;0.62;;;;;;;18.49;43.40;98917.14;1687717;83;21515;-56
2021/05/05 09:40:05;;;;;;;3.22;0.50;;;;;;;18.53;43.53;98910.92;1690491;84;21121;-55
2021/05/05 09:42:34;;;;;;;1.77;0.40;;;;;;;18.60;43.90;98916.17;1655985;86;21988;-58
2021/05/05 09:45:11;;;;;;;1.62;0.40;;;;;;;18.67;42.82;98907.77;1625395;87;21225;-56
2021/05/05 09:47:56;;;;;;;1.07;0.50;;;;;;;18.73;42.47;98903.09;1654184;86;21193;-56
2021/05/05 09:50:39;;;;;;;3.05;0.40;;;;;;;18.79;42.57;98902.53;1629731;86;21226;-55
2021/05/05 09:53:29;;;;;;;1.12;0.40;;;;;;;18.87;42.27;98903.16;1649092;86;21727;-55
2021/05/05 09:56:05;;;;;;;0.40;0.40;;;;;;;18.97;42.56;98909.96;1652784;86;21231;-56
2021/05/05 09:58:43;;;;;;;3.90;0.42;;;;;;;19.07;42.29;98900.72;1651653;86;21712;-56
2021/05/05 10:01:14;;;;;;;0.50;0.30;;;;;;;19.15;42.20;98906.29;1650282;86;21171;-57
2021/05/05 10:03:47;;;;;;;1.98;0.40;;;;;;;19.22;41.75;98899.23;1629249;86;21655;-56
2021/05/05 10:06:31;;;;;;;2.22;0.40;;;;;;;19.28;41.11;98891.83;1629579;86;21125;-56
2021/05/05 10:09:10;;;;;;;1.62;0.40;;;;;;;19.35;40.90;98890.72;1630055;86;21215;-57
2021/05/05 10:11:40;;;;;;;3.02;0.50;;;;;;;19.39;40.77;98881.23;1651799;86;21228;-56
2021/05/05 10:14:16;;;;;;;0.50;0.30;;;;;;;19.41;40.26;98883.28;1649555;86;21595;-56
2021/05/05 10:16:47;;;;;;;1.10;0.40;;;;;;;19.41;40.82;98884.66;1651850;86;21197;-56
2021/05/05 10:19:21;;;;;;;2.17;0.50;;;;;;;19.45;40.79;98887.95;1653533;84;21662;-56
2021/05/05 10:21:56;;;;;;;0.40;0.30;;;;;;;19.46;40.01;98874.67;1649665;86;22127;-56
2021/05/05 10:24:25;;;;;;;1.22;0.40;;;;;;;19.47;39.98;98877.28;1651643;86;21745;-55
2021/05/05 10:26:53;;;;;;;1.85;0.30;;;;;;;19.49;39.83;98886.66;1651034;86;21463;-57
2021/05/05 10:29:41;;;;;;;;;;;;;;;;;;;;;
2021/05/05 10:32:07;;;;;;;1.30;0.40;;;;;;;19.64;39.17;98872.87;1859518;74;28627;-53
2021/05/05 10:34:36;;;;;;;0.78;0.28;;;;;;;19.63;38.93;98883.45;1836758;75;21183;-55
2021/05/05 10:37:04;;;;;;;0.75;0.30;;;;;;;19.65;38.88;98877.30;1832435;75;21338;-55
2021/05/05 10:39:40;;;;;;;0.45;0.30;;;;;;;19.69;38.23;98871.91;1836569;75;21040;-53
2021/05/05 10:42:17;;;;;;;1.60;0.30;;;;;;;19.71;38.23;98875.35;1831857;75;20980;-56
2021/05/05 10:44:59;;;;;;;0.93;0.30;;;;;;;19.73;37.58;98865.14;1819374;77;21637;-56
2021/05/05 10:47:31;;;;;;;4.10;0.33;;;;;;;19.77;37.49;98865.67;1819764;77;21174;-56
2021/05/05 10:50:08;;;;;;;0.40;0.30;;;;;;;19.79;36.89;98850.87;1817498;77;22310;-56
2021/05/05 10:52:55;;;;;;;1.00;0.30;;;;;;;19.83;36.28;98857.72;1817525;77;21052;-55
2021/05/05 10:55:47;;;;;;;1.22;0.30;;;;;;;19.88;37.02;98856.77;1820469;77;21178;-56
2021/05/05 10:58:26;;;;;;;0.30;0.20;;;;;;;19.94;35.41;98858.88;1816680;77;21175;-57
2021/05/05 11:00:59;;;;;;;0.40;0.30;;;;;;;19.95;34.85;98856.50;1817735;77;21584;-56
2021/05/05 11:03:49;;;;;;;0.40;0.30;;;;;;;19.95;34.90;98844.72;1819531;77;21139;-56
2021/05/05 11:06:36;;;;;;;0.40;0.28;;;;;;;19.94;35.18;98860.75;1819238;77;21226;-57
2021/05/05 11:09:16;;;;;;;0.70;0.30;;;;;;;19.92;34.73;98851.84;1820236;77;21150;-56
2021/05/05 11:11:50;;;;;;;1.25;0.30;;;;;;;19.91;34.82;98861.05;1818402;77;21467;-58
2021/05/05 11:14:32;;;;;;;0.35;0.20;;;;;;;19.91;34.18;98846.02;1866078;74;27123;-55
2021/05/05 11:17:05;;;;;;;0.33;0.20;;;;;;;19.86;34.25;98842.91;1832677;75;21033;-55
2021/05/05 11:19:41;;;;;;;1.27;0.30;;;;;;;19.85;34.37;98848.88;1833767;75;21388;-57
2021/05/05 11:22:20;;;;;;;0.82;0.30;;;;;;;19.87;33.51;98846.00;1834844;75;21193;-57
2021/05/05 11:24:50;;;;;;;0.78;0.25;;;;;;;19.90;33.44;98841.61;1832671;75;21079;-57
2021/05/05 11:27:25;;;;;;;1.55;0.40;;;;;;;19.94;33.02;98850.69;1800375;77;20978;-55
2021/05/05 11:29:54;;;;;;;0.50;0.20;;;;;;;20.00;33.03;98841.86;1761920;78;20974;-56
2021/05/05 11:32:26;;;;;;;0.62;0.30;;;;;;;20.05;31.93;98831.84;1790428;77;21530;-58
2021/05/05 11:34:55;;;;;;;0.95;0.37;;;;;;;20.06;31.72;98838.17;1770909;78;21406;-56
2021/05/05 11:37:27;;;;;;;0.30;0.20;;;;;;;20.07;32.01;98851.69;1797737;77;21842;-56
2021/05/05 11:39:59;;;;;;;2.65;0.25;;;;;;;20.10;32.02;98844.52;1798801;77;21487;-57
2021/05/05 11:42:33;;;;;;;2.40;0.20;;;;;;;20.15;31.94;98824.95;1793067;77;21506;-57
2021/05/05 11:45:11;;;;;;;1.27;0.30;;;;;;;20.19;31.77;98829.92;1786045;78;21893;-56
2021/05/05 11:47:45;;;;;;;5.58;0.68;;;;;;;20.24;31.44;98841.27;1790348;78;21140;-57
2021/05/05 11:50:19;;;;;;;1.45;0.30;;;;;;;20.25;30.37;98841.58;1790008;78;21749;-56
2021/05/05 11:52:52;;;;;;;0.30;0.20;;;;;;;20.25;30.80;98838.85;1784474;78;21625;-57
2021/05/05 11:55:27;;;;;;;0.93;0.30;;;;;;;20.27;30.97;98832.73;1765025;79;21123;-56
2021/05/05 11:57:58;;;;;;;0.88;0.20;;;;;;;20.29;31.73;98823.88;1758270;80;21123;-58
2021/05/05 12:00:29;;;;;;;2.12;0.30;;;;;;;20.32;30.93;98824.94;1786072;78;21128;-56
2021/05/05 12:03:04;;;;;;;0.72;0.30;;;;;;;20.34;30.87;98825.64;1784970;78;22207;-56